Time;durP1;ratioP1;P1;durP2;ratioP2;P2;SDS_P1;SDS_P2;PMS_P1;PMS_P2;Temp;Humidity;BMP_temperature;BMP_pressure;BME280_temperature;BME280_humidity;BME280_pressure;Samples;Min_cycle;Max_cycle;Signal;HPM_P1;HPM_P2
2023/08/11 00:02:23;;;;;;;3.00;2.22;;;;;;;18.65;nan;61485.84;5010082;28;20202;-64
2023/08/11 00:04:52;;;;;;;2.55;2.00;;;;;;;18.50;nan;61619.50;5011763;28;20568;-64
2023/08/11 00:07:17;;;;;;;2.63;1.90;;;;;;;18.39;nan;61467.34;5011082;28;20186;-62
2023/08/11 00:09:44;;;;;;;2.38;2.03;;;;;;;18.46;nan;61439.03;5012026;28;20538;-63
2023/08/11 00:12:09;;;;;;;2.15;1.95;;;;;;;18.58;nan;61451.50;5011923;28;20640;-63
2023/08/11 00:14:36;;;;;;;2.95;2.22;;;;;;;18.26;nan;61431.94;5012117;28;20210;-63
2023/08/11 00:17:04;;;;;;;2.67;2.17;;;;;;;18.09;nan;61418.44;5012376;28;20188;-61
2023/08/11 00:19:30;;;;;;;2.97;2.20;;;;;;;17.90;nan;61384.03;5011472;28;20220;-62
2023/08/11 00:21:56;;;;;;;2.67;2.08;;;;;;;17.63;nan;61377.34;5011478;28;20560;-63
2023/08/11 00:24:23;;;;;;;5.38;1.98;;;;;;;17.60;nan;61358.44;5013336;28;20175;-63
2023/08/11 00:26:48;;;;;;;2.92;2.20;;;;;;;17.60;nan;61430.22;5016302;28;20265;-63
2023/08/11 00:29:13;;;;;;;4.15;2.30;;;;;;;17.62;nan;61256.78;5015635;28;20611;-63
2023/08/11 00:31:39;;;;;;;2.50;2.20;;;;;;;17.67;nan;61345.69;5015644;28;20179;-63
2023/08/11 00:34:06;;;;;;;2.80;1.90;;;;;;;17.97;nan;61404.88;5015931;28;20654;-61
2023/08/11 00:36:32;;;;;;;3.35;2.35;;;;;;;17.83;nan;61629.41;5016262;28;20227;-63
2023/08/11 00:39:00;;;;;;;2.42;2.00;;;;;;;18.03;nan;61524.84;5015750;28;20671;-63
2023/08/11 00:41:26;;;;;;;2.05;1.77;;;;;;;18.28;nan;61469.84;5016048;28;20175;-63
2023/08/11 00:43:51;;;;;;;2.50;1.95;;;;;;;18.34;nan;61451.34;5015455;28;20263;-61
2023/08/11 00:46:21;;;;;;;3.08;2.20;;;;;;;17.93;nan;61431.38;5015337;28;20255;-64
2023/08/11 00:48:50;;;;;;;3.30;2.00;;;;;;;18.10;nan;61533.34;5015756;28;20176;-61
2023/08/11 00:51:18;;;;;;;3.08;2.17;;;;;;;16.03;nan;61288.47;5015817;28;20161;-62
2023/08/11 00:53:48;;;;;;;3.58;1.95;;;;;;;18.36;nan;61427.16;5015572;28;20357;-62
2023/08/11 00:56:19;;;;;;;2.47;1.85;;;;;;;18.02;nan;61303.97;5015704;28;20176;-62
2023/08/11 00:58:46;;;;;;;2.60;2.15;;;;;;;18.15;nan;61466.03;5014467;28;20203;-63
2023/08/11 01:01:11;;;;;;;2.70;2.30;;;;;;;17.93;nan;61663.44;5014926;28;20643;-64
2023/08/11 01:03:37;;;;;;;3.33;2.38;;;;;;;17.90;nan;61370.53;5014853;28;20255;-60
2023/08/11 01:06:29;;;;;;;3.00;2.10;;;;;;;18.18;nan;61466.28;5015017;28;20639;-61
2023/08/11 01:09:00;;;;;;;2.92;2.13;;;;;;;18.07;nan;61516.44;5014833;28;20184;-63
2023/08/11 01:11:33;;;;;;;3.28;2.25;;;;;;;18.16;nan;61493.03;5015047;28;20587;-61
2023/08/11 01:14:18;;;;;;;2.78;2.05;;;;;;;17.90;nan;61357.63;5014866;28;20650;-62
2023/08/11 01:16:47;;;;;;;2.58;2.17;;;;;;;17.78;nan;61556.53;5014554;28;20179;-63
2023/08/11 01:19:23;;;;;;;3.17;2.28;;;;;;;17.84;nan;61353.44;5014833;28;20290;-62
2023/08/11 01:21:51;;;;;;;3.20;2.30;;;;;;;17.62;nan;61336.88;5014260;28;20176;-64
2023/08/11 01:24:17;;;;;;;2.70;2.15;;;;;;;17.69;nan;61368.06;5014380;28;20611;-62
2023/08/11 01:26:43;;;;;;;3.00;2.15;;;;;;;17.32;nan;61269.41;5014584;28;20176;-61
2023/08/11 01:29:08;;;;;;;2.85;2.22;;;;;;;17.43;nan;61323.72;5014758;28;20235;-63
2023/08/11 01:31:34;;;;;;;2.28;2.08;;;;;;;17.37;nan;61326.72;5014988;28;20184;-62
2023/08/11 01:33:59;;;;;;;2.42;2.10;;;;;;;17.33;nan;61311.84;5015071;28;20264;-62
2023/08/11 01:36:25;;;;;;;3.22;2.20;;;;;;;17.01;nan;61260.81;5013330;28;20658;-61
2023/08/11 01:38:50;;;;;;;2.88;2.10;;;;;;;16.91;nan;61273.31;5014851;28;20583;-63
2023/08/11 01:41:15;;;;;;;2.78;2.13;;;;;;;16.82;nan;61394.16;5014767;28;20164;-63
2023/08/11 01:43:41;;;;;;;2.25;2.03;;;;;;;16.75;nan;61335.75;5014813;28;20222;-60
2023/08/11 01:46:08;;;;;;;2.88;2.28;;;;;;;16.74;nan;61360.44;5014501;28;20652;-61
2023/08/11 01:48:36;;;;;;;2.53;2.10;;;;;;;16.85;nan;61265.94;5014541;28;20180;-62
2023/08/11 01:51:02;;;;;;;3.10;2.22;;;;;;;16.55;nan;61215.16;5014142;28;20179;-60
2023/08/11 01:53:27;;;;;;;2.72;2.10;;;;;;;16.46;nan;61321.00;5014768;28;20176;-64
2023/08/11 01:55:54;;;;;;;3.13;2.28;;;;;;;16.77;nan;61252.34;5014413;28;20647;-61
2023/08/11 01:58:19;;;;;;;3.80;2.30;;;;;;;13.21;nan;62485.25;5014640;28;20222;-62
2023/08/11 02:00:45;;;;;;;3.10;2.20;;;;;;;16.97;nan;61318.78;5014252;28;20679;-61
2023/08/11 02:03:10;;;;;;;2.72;2.00;;;;;;;16.76;nan;61248.63;5014354;28;20203;-62
2023/08/11 02:05:36;;;;;;;5.30;2.30;;;;;;;17.07;nan;61280.47;5014160;28;20160;-61
2023/08/11 02:08:02;;;;;;;2.85;2.15;;;;;;;16.76;nan;61264.66;5013840;28;20647;-61
2023/08/11 02:10:28;;;;;;;3.03;2.25;;;;;;;16.87;nan;61255.88;5014263;28;20267;-62
2023/08/11 02:12:53;;;;;;;2.38;2.10;;;;;;;16.91;nan;61273.31;5013871;28;20676;-62
2023/08/11 02:15:18;;;;;;;2.47;2.00;;;;;;;16.86;nan;61368.28;5014037;28;20180;-62
2023/08/11 02:17:44;;;;;;;3.05;2.00;;;;;;;17.09;nan;61254.34;5013920;28;20203;-63
2023/08/11 02:20:21;;;;;;;3.67;2.38;;;;;;;16.89;nan;61384.56;5013890;28;20183;-64
2023/08/11 02:22:48;;;;;;;2.80;2.20;;;;;;;17.11;nan;61288.13;5014406;28;20160;-64
2023/08/11 02:25:14;;;;;;;3.42;2.22;;;;;;;16.98;nan;61278.63;5013923;28;20203;-64
2023/08/11 02:27:40;;;;;;;2.47;2.28;;;;;;;16.87;nan;61258.47;5013897;28;20289;-61
2023/08/11 02:30:06;;;;;;;3.60;2.10;;;;;;;17.07;nan;61303.69;5013870;28;20172;-62
2023/08/11 02:32:32;;;;;;;2.75;2.35;;;;;;;17.13;nan;61325.97;5013878;28;20640;-63
2023/08/11 02:34:58;;;;;;;2.58;2.35;;;;;;;16.97;nan;61267.16;5013821;28;20998;-63
2023/08/11 02:37:23;;;;;;;4.00;2.50;;;;;;;16.95;nan;61274.66;5013445;28;20204;-62
2023/08/11 02:39:49;;;;;;;3.03;2.25;;;;;;;16.95;nan;61313.94;5013900;28;20168;-60
2023/08/11 02:42:14;;;;;;;2.83;2.38;;;;;;;16.63;nan;61353.16;5013801;28;20172;-63
2023/08/11 02:44:39;;;;;;;3.38;2.22;;;;;;;16.51;nan;61235.88;5013551;28;20255;-61
2023/08/11 02:47:05;;;;;;;2.95;2.28;;;;;;;16.81;nan;61243.38;5013236;28;20640;-61
2023/08/11 02:49:30;;;;;;;3.25;2.40;;;;;;;16.73;nan;61256.13;5013254;28;20208;-60
2023/08/11 02:51:55;;;;;;;2.72;2.22;;;;;;;16.45;nan;61257.44;5013549;28;20545;-60
2023/08/11 02:54:21;;;;;;;3.17;2.38;;;;;;;16.55;nan;61258.44;5013383;28;20168;-62
2023/08/11 02:56:47;;;;;;;3.42;2.60;;;;;;;16.47;nan;61355.09;5013129;28;20201;-61
2023/08/11 02:59:13;;;;;;;4.93;2.35;;;;;;;16.54;nan;61272.78;5013323;28;20206;-61
2023/08/11 03:01:39;;;;;;;2.70;2.13;;;;;;;16.38;nan;61329.47;5009563;28;20256;-62
2023/08/11 03:04:05;;;;;;;3.45;2.35;;;;;;;16.69;nan;61212.34;5008976;28;20184;-63
2023/08/11 03:06:31;;;;;;;2.97;2.50;;;;;;;16.86;nan;61342.47;5013628;28;20172;-62
2023/08/11 03:08:56;;;;;;;4.43;2.75;;;;;;;17.09;nan;61275.56;5013253;28;20191;-62
2023/08/11 03:11:21;;;;;;;2.97;2.38;;;;;;;17.13;nan;61328.56;5011607;28;20172;-63
2023/08/11 03:13:47;;;;;;;2.70;2.20;;;;;;;16.89;nan;61415.53;5012196;28;20188;-62
2023/08/11 03:16:13;;;;;;;2.78;2.38;;;;;;;16.83;nan;61230.16;5012605;28;20172;-61
2023/08/11 03:18:39;;;;;;;3.40;2.25;;;;;;;16.72;nan;61158.97;5012715;28;20290;-61
2023/08/11 03:21:05;;;;;;;4.00;2.30;;;;;;;16.77;nan;61201.31;5013390;28;20241;-62
2023/08/11 03:23:30;;;;;;;3.17;2.58;;;;;;;16.99;nan;61295.22;5012767;28;20176;-61
2023/08/11 03:25:55;;;;;;;5.90;2.67;;;;;;;17.03;nan;61255.31;5012811;28;20184;-62
2023/08/11 03:28:21;;;;;;;4.18;2.65;;;;;;;17.06;nan;61380.00;5012930;28;20310;-63
2023/08/11 03:30:47;;;;;;;3.42;2.60;;;;;;;16.99;nan;61243.06;5012707;28;20196;-61
2023/08/11 03:33:12;;;;;;;2.88;2.53;;;;;;;17.23;nan;61303.72;5012768;28;20171;-63
2023/08/11 03:35:38;;;;;;;2.63;2.38;;;;;;;17.18;nan;61563.97;5011488;28;20176;-62
2023/08/11 03:38:04;;;;;;;3.90;2.33;;;;;;;17.71;nan;61380.09;5012694;28;20218;-62
2023/08/11 03:40:29;;;;;;;3.42;2.70;;;;;;;18.18;nan;61402.19;5011850;28;20574;-62
2023/08/11 03:42:55;;;;;;;3.70;2.67;;;;;;;18.70;nan;61512.22;5012494;28;20176;-62
2023/08/11 03:45:20;;;;;;;2.80;2.47;;;;;;;19.30;nan;61597.75;5012249;28;20593;-61
2023/08/11 03:47:46;;;;;;;4.78;2.50;;;;;;;19.16;nan;61527.47;5011274;28;20580;-63
2023/08/11 03:50:11;;;;;;;4.03;2.67;;;;;;;19.29;nan;61580.50;5012947;28;20632;-63
2023/08/11 03:52:37;;;;;;;2.85;2.40;;;;;;;19.24;nan;61670.66;5011630;28;20183;-62
2023/08/11 03:55:04;;;;;;;4.60;2.50;;;;;;;20.65;nan;61699.28;5011903;28;20731;-63
2023/08/11 03:57:29;;;;;;;2.45;2.17;;;;;;;21.58;nan;61853.09;5012080;28;20242;-62
2023/08/11 03:59:54;;;;;;;2.45;2.22;;;;;;;22.14;nan;61955.22;5011659;28;20180;-61
2023/08/11 04:02:20;;;;;;;4.40;2.85;;;;;;;22.88;nan;61996.59;5010461;28;20207;-61
2023/08/11 04:04:45;;;;;;;2.97;2.38;;;;;;;23.62;nan;62114.19;5012180;28;20175;-62
2023/08/11 04:07:11;;;;;;;2.70;2.20;;;;;;;24.49;nan;62052.28;5012124;28;20616;-61
2023/08/11 04:09:39;;;;;;;3.88;2.22;;;;;;;25.11;nan;62075.19;5011047;28;20192;-62
2023/08/11 04:12:06;;;;;;;3.75;2.47;;;;;;;25.97;nan;62304.94;5012334;28;20234;-64
2023/08/11 04:14:32;;;;;;;5.18;2.20;;;;;;;26.14;nan;62292.88;5011781;28;20272;-64
2023/08/11 04:16:57;;;;;;;2.63;2.00;;;;;;;27.01;nan;62540.59;5011615;28;20211;-63
2023/08/11 04:19:23;;;;;;;3.65;2.10;;;;;;;27.55;nan;62533.56;5011880;28;20298;-63
2023/08/11 04:21:48;;;;;;;3.20;2.28;;;;;;;27.77;nan;62608.06;5011958;28;20176;-63
2023/08/11 04:24:15;;;;;;;2.53;2.00;;;;;;;27.71;nan;62851.28;5011708;28;20229;-62
2023/08/11 04:26:41;;;;;;;4.65;2.13;;;;;;;27.77;nan;62768.88;5011248;28;20238;-62
2023/08/11 04:29:06;;;;;;;3.65;2.20;;;;;;;27.98;nan;62887.56;5010085;28;20227;-62
2023/08/11 04:31:31;;;;;;;4.20;2.20;;;;;;;28.06;nan;62720.09;5011348;28;20171;-64
2023/08/11 04:33:57;;;;;;;3.33;2.67;;;;;;;28.05;nan;62656.44;5011469;28;20247;-61
2023/08/11 04:36:23;;;;;;;3.08;2.15;;;;;;;27.90;nan;62743.78;5011715;28;20168;-64
2023/08/11 04:38:48;;;;;;;2.75;2.13;;;;;;;27.44;nan;62707.94;5010174;28;20215;-63
2023/08/11 04:41:13;;;;;;;3.15;2.13;;;;;;;27.00;nan;62537.41;5011797;28;20179;-62
2023/08/11 04:43:39;;;;;;;2.90;2.40;;;;;;;26.70;nan;62480.03;5011571;28;20184;-63
2023/08/11 04:46:04;;;;;;;4.80;2.25;;;;;;;26.34;nan;62386.47;5011091;28;20565;-60
2023/08/11 04:48:30;;;;;;;2.80;2.22;;;;;;;26.08;nan;62284.00;5011568;28;20195;-62
2023/08/11 04:50:56;;;;;;;3.15;2.55;;;;;;;26.07;nan;62408.59;5010375;28;20175;-63
2023/08/11 04:53:22;;;;;;;3.03;2.10;;;;;;;25.23;nan;62250.47;5011099;28;20315;-63
2023/08/11 04:55:48;;;;;;;2.47;1.92;;;;;;;23.99;nan;62176.09;5010860;28;20623;-65
2023/08/11 04:58:13;;;;;;;4.63;2.25;;;;;;;24.02;nan;62161.81;5011088;28;20210;-64
2023/08/11 05:00:38;;;;;;;2.88;2.38;;;;;;;23.95;nan;62059.28;5010830;28;20267;-65
2023/08/11 05:03:04;;;;;;;2.45;1.95;;;;;;;23.46;nan;61934.25;5012025;28;20191;-65
2023/08/11 05:05:29;;;;;;;2.40;2.03;;;;;;;23.65;nan;62028.91;5011586;28;20295;-64
2023/08/11 05:07:55;;;;;;;3.55;2.58;;;;;;;23.32;nan;62119.69;5010896;28;20176;-63
2023/08/11 05:10:20;;;;;;;3.15;2.35;;;;;;;23.04;nan;61965.28;5011323;28;20176;-63
2023/08/11 05:12:48;;;;;;;3.15;2.35;;;;;;;22.95;nan;61955.03;5005539;28;20172;-64
2023/08/11 05:15:13;;;;;;;3.42;2.30;;;;;;;22.64;nan;61878.69;5005059;28;20670;-63
2023/08/11 05:17:39;;;;;;;4.53;2.45;;;;;;;22.45;nan;61867.53;5006397;28;20180;-61
2023/08/11 05:20:08;;;;;;;3.58;2.70;;;;;;;22.17;nan;61968.47;5013271;28;20188;-63
2023/08/11 05:22:34;;;;;;;4.15;2.30;;;;;;;22.13;nan;61927.47;5014499;28;20176;-65
2023/08/11 05:25:02;;;;;;;3.45;2.40;;;;;;;21.92;nan;61829.25;5014458;28;20172;-63
2023/08/11 05:27:27;;;;;;;2.97;2.38;;;;;;;21.72;nan;61787.81;5014006;28;20226;-64
2023/08/11 05:29:53;;;;;;;3.67;2.20;;;;;;;22.00;nan;61923.69;5014372;28;20164;-62
2023/08/11 05:32:18;;;;;;;2.80;2.30;;;;;;;21.85;nan;61847.34;5005544;28;20169;-63
2023/08/11 05:34:45;;;;;;;3.15;2.40;;;;;;;21.73;nan;61932.56;5004519;28;20394;-63
2023/08/11 05:37:10;;;;;;;3.30;2.42;;;;;;;21.96;nan;62021.16;5009296;28;20657;-63
2023/08/11 05:39:38;;;;;;;3.30;2.30;;;;;;;21.95;nan;61861.34;5014098;28;20224;-61
2023/08/11 05:42:05;;;;;;;3.47;2.30;;;;;;;21.93;nan;61881.91;5013729;28;20198;-62
2023/08/11 05:44:30;;;;;;;3.03;2.40;;;;;;;21.91;nan;62012.31;5013648;28;20184;-62
2023/08/11 05:46:56;;;;;;;3.08;2.20;;;;;;;21.92;nan;61818.28;5013967;28;20245;-63
2023/08/11 05:49:21;;;;;;;5.82;2.50;;;;;;;21.95;nan;62061.69;5013276;28;20180;-63
2023/08/11 05:51:47;;;;;;;3.13;2.35;;;;;;;21.96;nan;61826.03;5012435;28;20179;-64
2023/08/11 05:54:12;;;;;;;4.03;2.47;;;;;;;22.17;nan;61882.56;5011946;28;20687;-64
2023/08/11 05:56:37;;;;;;;3.53;2.38;;;;;;;22.14;nan;61903.16;5013703;28;20199;-64
2023/08/11 05:59:03;;;;;;;3.92;2.10;;;;;;;22.25;nan;62157.19;5013646;28;20207;-63
2023/08/11 06:01:30;;;;;;;5.45;2.78;;;;;;;22.07;nan;61889.44;5013583;28;20741;-63
2023/08/11 06:03:55;;;;;;;2.67;2.30;;;;;;;21.87;nan;61821.00;5013529;28;20307;-63
2023/08/11 06:06:20;;;;;;;3.75;2.45;;;;;;;22.32;nan;62167.78;5013814;28;20168;-64
2023/08/11 06:08:46;;;;;;;5.10;2.60;;;;;;;22.24;nan;62005.09;5013777;28;20180;-62
2023/08/11 06:11:11;;;;;;;2.70;2.40;;;;;;;22.24;nan;61955.63;5013112;28;20181;-63
2023/08/11 06:13:36;;;;;;;4.25;2.42;;;;;;;22.14;nan;61910.41;5013569;28;20583;-62
2023/08/11 06:16:02;;;;;;;3.83;2.70;;;;;;;22.43;nan;61969.97;5009701;28;20191;-63
2023/08/11 06:18:27;;;;;;;2.90;2.30;;;;;;;22.15;nan;62013.06;5012016;28;20683;-64
2023/08/11 06:20:53;;;;;;;2.97;2.30;;;;;;;22.26;nan;61929.25;5012040;28;20175;-64
2023/08/11 06:23:18;;;;;;;3.33;2.28;;;;;;;22.51;nan;62019.63;5011912;28;20650;-64
2023/08/11 06:25:44;;;;;;;3.25;2.40;;;;;;;22.39;nan;61957.03;5012488;28;20277;-64
2023/08/11 06:28:09;;;;;;;3.33;2.30;;;;;;;22.50;nan;61922.13;5012403;28;20224;-63
2023/08/11 06:30:34;;;;;;;3.92;2.80;;;;;;;22.75;nan;61974.00;5012455;28;20247;-62
2023/08/11 06:33:00;;;;;;;3.63;2.50;;;;;;;23.01;nan;62005.63;5012165;28;20619;-63
2023/08/11 06:35:25;;;;;;;3.42;2.45;;;;;;;22.57;nan;61948.28;5012058;28;20176;-63
2023/08/11 06:37:51;;;;;;;4.20;2.78;;;;;;;23.00;nan;62145.22;5012041;28;20192;-64
2023/08/11 06:40:16;;;;;;;3.83;2.45;;;;;;;22.77;nan;62077.88;5012081;28;20231;-62
2023/08/11 06:42:42;;;;;;;4.93;2.50;;;;;;;23.25;nan;62080.44;5011599;28;20230;-62
2023/08/11 06:45:07;;;;;;;5.07;2.78;;;;;;;22.88;nan;62106.06;5011852;28;20509;-62
2023/08/11 06:47:36;;;;;;;3.03;2.38;;;;;;;23.01;nan;62036.88;5012028;28;20234;-64
2023/08/11 06:50:03;;;;;;;6.88;2.83;;;;;;;23.14;nan;62062.13;5011577;28;20666;-64
2023/08/11 06:52:28;;;;;;;3.33;2.50;;;;;;;23.23;nan;62234.03;5011623;28;20589;-63
2023/08/11 06:54:54;;;;;;;4.30;2.50;;;;;;;23.48;nan;62207.81;5011821;28;20180;-64
2023/08/11 06:57:22;;;;;;;2.70;2.30;;;;;;;23.55;nan;62087.38;5011460;28;20298;-64
2023/08/11 06:59:48;;;;;;;3.28;2.67;;;;;;;23.70;nan;62130.56;5011699;28;20206;-64
2023/08/11 07:02:13;;;;;;;3.88;2.50;;;;;;;23.64;nan;62077.31;5012085;28;20175;-65
2023/08/11 07:04:42;;;;;;;3.95;2.78;;;;;;;23.52;nan;62316.72;5011566;28;20217;-63
2023/08/11 07:07:07;;;;;;;3.17;2.28;;;;;;;23.68;nan;62128.84;5009615;28;20180;-65
2023/08/11 07:09:33;;;;;;;3.88;2.65;;;;;;;23.56;nan;62117.22;5011250;28;20175;-63
2023/08/11 07:11:59;;;;;;;4.47;2.40;;;;;;;23.81;nan;62090.91;5011138;28;20176;-62
2023/08/11 07:14:25;;;;;;;2.95;2.42;;;;;;;23.86;nan;62122.69;5011392;28;20191;-63
2023/08/11 07:16:51;;;;;;;4.05;2.67;;;;;;;23.95;nan;62121.94;5010544;28;20670;-64
2023/08/11 07:19:18;;;;;;;3.28;2.60;;;;;;;23.97;nan;62291.84;5009647;28;20303;-63
2023/08/11 07:21:43;;;;;;;3.30;2.72;;;;;;;23.82;nan;62070.56;5011009;28;20332;-62
2023/08/11 07:24:10;;;;;;;2.67;2.28;;;;;;;24.19;nan;62201.50;5010940;28;20745;-64
2023/08/11 07:26:35;;;;;;;2.97;2.58;;;;;;;24.22;nan;62207.56;5011281;28;20175;-62
2023/08/11 07:29:00;;;;;;;3.03;2.58;;;;;;;24.29;nan;62170.56;5010891;28;20280;-62
2023/08/11 07:31:26;;;;;;;2.88;2.30;;;;;;;24.25;nan;62158.75;5011760;28;20469;-64
2023/08/11 07:33:51;;;;;;;3.05;2.22;;;;;;;24.28;nan;62258.78;5009466;28;20176;-61
2023/08/11 07:36:17;;;;;;;2.45;2.13;;;;;;;24.50;nan;62278.09;5010630;28;20172;-66
2023/08/11 07:38:42;;;;;;;3.42;2.40;;;;;;;24.45;nan;62455.28;5010945;28;20203;-64
2023/08/11 07:41:08;;;;;;;2.70;2.10;;;;;;;24.67;nan;62242.03;5010989;28;20174;-64
2023/08/11 07:43:33;;;;;;;2.25;2.05;;;;;;;24.81;nan;62244.94;5011672;28;20179;-64
2023/08/11 07:45:59;;;;;;;3.28;2.40;;;;;;;25.05;nan;62282.81;5010602;28;20195;-65
2023/08/11 07:48:24;;;;;;;3.55;2.38;;;;;;;25.06;nan;62428.34;5011343;28;20191;-62
2023/08/11 07:50:50;;;;;;;4.60;2.20;;;;;;;25.41;nan;62339.59;5011524;28;20256;-62
2023/08/11 07:53:15;;;;;;;3.03;2.13;;;;;;;25.63;nan;62381.91;5010910;28;20263;-64
2023/08/11 07:55:41;;;;;;;2.72;1.92;;;;;;;25.20;nan;62320.84;5010674;28;20566;-63
2023/08/11 07:58:06;;;;;;;3.67;2.22;;;;;;;22.31;nan;61969.34;5011191;28;20679;-63
2023/08/11 08:00:32;;;;;;;4.95;2.70;;;;;;;25.52;nan;62396.06;5011228;28;20230;-62
2023/08/11 08:02:57;;;;;;;2.60;1.92;;;;;;;25.69;nan;62449.53;5011296;28;20180;-65
2023/08/11 08:05:23;;;;;;;3.05;2.20;;;;;;;25.55;nan;62491.13;5011446;28;20181;-64
2023/08/11 08:07:49;;;;;;;3.25;2.30;;;;;;;25.74;nan;62509.69;5011204;28;20266;-64
2023/08/11 08:10:15;;;;;;;2.40;2.00;;;;;;;25.64;nan;62370.53;5011180;28;20195;-65
2023/08/11 08:12:45;;;;;;;2.60;2.10;;;;;;;25.61;nan;62602.13;5011552;28;20251;-63
2023/08/11 08:15:12;;;;;;;2.60;2.30;;;;;;;25.77;nan;62594.28;5010977;28;20207;-63
2023/08/11 08:17:38;;;;;;;3.17;2.00;;;;;;;25.66;nan;62272.78;5010605;28;20687;-62
2023/08/11 08:20:05;;;;;;;2.50;2.10;;;;;;;25.81;nan;62515.63;5011157;28;20172;-64
2023/08/11 08:22:32;;;;;;;3.42;2.13;;;;;;;25.70;nan;62377.38;5011248;28;20175;-64
2023/08/11 08:24:58;;;;;;;2.55;2.03;;;;;;;25.80;nan;62367.84;5011105;28;20172;-64
2023/08/11 08:27:24;;;;;;;4.20;2.10;;;;;;;25.93;nan;62429.84;5010738;28;20307;-63
2023/08/11 08:29:53;;;;;;;3.63;2.08;;;;;;;25.71;nan;62370.13;5011031;28;20172;-63
2023/08/11 08:32:20;;;;;;;3.08;2.22;;;;;;;26.00;nan;62539.41;5011799;28;20241;-63
2023/08/11 08:34:47;;;;;;;3.00;2.05;;;;;;;25.99;nan;62506.84;5011304;28;20164;-63
2023/08/11 08:37:13;;;;;;;2.28;1.95;;;;;;;25.85;nan;62410.22;5010674;28;20187;-66
2023/08/11 08:39:39;;;;;;;3.63;2.15;;;;;;;25.66;nan;62466.50;5009421;28;20208;-65
2023/08/11 08:42:05;;;;;;;2.28;1.80;;;;;;;26.01;nan;62430.56;5011324;28;20175;-65
2023/08/11 08:44:32;;;;;;;2.40;1.83;;;;;;;26.19;nan;62432.78;5011246;28;20167;-64
2023/08/11 08:47:00;;;;;;;4.28;1.90;;;;;;;26.08;nan;62414.97;5014966;28;20234;-63
2023/08/11 08:49:26;;;;;;;2.08;1.85;;;;;;;26.43;nan;62478.00;5015051;28;20621;-63
2023/08/11 08:51:56;;;;;;;3.20;2.10;;;;;;;26.25;nan;62447.53;5014516;28;20644;-62
2023/08/11 08:54:23;;;;;;;2.78;2.00;;;;;;;26.62;nan;62727.28;5014985;28;20223;-64
2023/08/11 08:56:51;;;;;;;2.28;2.03;;;;;;;26.63;nan;62639.84;5014745;28;20557;-63
2023/08/11 08:59:16;;;;;;;3.15;2.08;;;;;;;26.69;nan;62531.34;5014690;28;20207;-64
2023/08/11 09:01:42;;;;;;;2.13;1.65;;;;;;;26.83;nan;62704.72;5014847;28;20176;-63
2023/08/11 09:04:08;;;;;;;2.38;1.80;;;;;;;26.86;nan;62555.50;5014522;28;20169;-62
2023/08/11 09:06:35;;;;;;;3.47;1.83;;;;;;;26.65;nan;62444.91;5014703;28;20195;-64
2023/08/11 09:09:01;;;;;;;2.70;2.00;;;;;;;26.35;nan;62582.16;5014664;28;20190;-63
2023/08/11 09:11:27;;;;;;;3.17;2.30;;;;;;;27.18;nan;62639.34;5014351;28;20160;-62
2023/08/11 09:13:53;;;;;;;3.03;1.90;;;;;;;27.17;nan;62611.97;5013955;28;20187;-64
2023/08/11 09:16:22;;;;;;;2.25;2.00;;;;;;;26.99;nan;62763.94;5014415;28;20577;-63
2023/08/11 09:18:49;;;;;;;3.53;1.83;;;;;;;26.94;nan;62512.19;5013618;28;20188;-63
2023/08/11 09:21:14;;;;;;;2.38;1.92;;;;;;;27.04;nan;62500.00;5014614;28;20191;-63
2023/08/11 09:23:42;;;;;;;2.70;1.80;;;;;;;27.24;nan;62677.72;5013719;28;20188;-62
2023/08/11 09:26:09;;;;;;;2.03;1.83;;;;;;;27.07;nan;62673.97;5013745;28;20263;-62
2023/08/11 09:28:34;;;;;;;2.63;1.90;;;;;;;27.31;nan;62611.09;5013278;28;20711;-63
2023/08/11 09:30:59;;;;;;;2.88;1.92;;;;;;;27.37;nan;62583.84;5014108;28;20310;-63
2023/08/11 09:33:25;;;;;;;4.22;2.00;;;;;;;27.62;nan;62710.22;5013500;28;20247;-63
2023/08/11 09:35:53;;;;;;;2.50;2.10;;;;;;;27.41;nan;62617.28;5014325;28;20220;-65
2023/08/11 09:38:18;;;;;;;2.30;1.75;;;;;;;27.09;nan;62565.50;5014065;28;20207;-64
2023/08/11 09:40:46;;;;;;;2.60;2.03;;;;;;;26.94;nan;62630.22;5013301;28;20187;-65
2023/08/11 09:43:12;;;;;;;2.13;1.70;;;;;;;27.27;nan;62580.84;5013902;28;20212;-63
2023/08/11 09:45:37;;;;;;;2.55;1.90;;;;;;;27.33;nan;62566.69;5012974;28;20168;-63
2023/08/11 09:48:03;;;;;;;2.17;1.83;;;;;;;27.14;nan;62598.00;5013807;28;20180;-64
2023/08/11 09:50:32;;;;;;;2.17;1.80;;;;;;;27.15;nan;62646.41;5013628;28;20191;-64
2023/08/11 09:53:01;;;;;;;2.95;1.90;;;;;;;27.19;nan;62572.25;5013989;28;20640;-62
2023/08/11 09:55:30;;;;;;;2.25;2.00;;;;;;;27.26;nan;62595.44;5014100;28;20179;-62
2023/08/11 09:57:56;;;;;;;2.15;1.60;;;;;;;27.46;nan;62701.78;5012762;28;20184;-62
2023/08/11 10:00:23;;;;;;;3.03;2.22;;;;;;;27.29;nan;62588.38;5012059;28;20187;-63
2023/08/11 10:03:14;;;;;;;2.33;1.77;;;;;;;27.50;nan;62701.72;5013212;28;20246;-62
2023/08/11 10:05:42;;;;;;;2.35;1.90;;;;;;;27.53;nan;62602.16;5003933;28;20188;-62
2023/08/11 10:08:16;;;;;;;2.13;1.77;;;;;;;27.34;nan;62717.47;5013726;28;20176;-62
2023/08/11 10:10:42;;;;;;;3.75;2.65;;;;;;;27.84;nan;62660.72;5013481;28;20255;-62
2023/08/11 10:13:14;;;;;;;3.05;1.85;;;;;;;28.13;nan;62674.97;5013533;28;20260;-63
2023/08/11 10:15:40;;;;;;;2.53;1.70;;;;;;;28.15;nan;62635.81;5013766;28;20172;-63
2023/08/11 10:18:06;;;;;;;3.28;2.20;;;;;;;28.41;nan;62726.03;5013188;28;20200;-64
2023/08/11 10:20:32;;;;;;;2.08;1.70;;;;;;;28.27;nan;62764.63;5013552;28;20183;-64
2023/08/11 10:22:58;;;;;;;2.38;1.98;;;;;;;28.31;nan;62861.25;5013555;28;20172;-65
2023/08/11 10:25:25;;;;;;;2.20;1.80;;;;;;;28.21;nan;62845.06;5012928;28;20662;-61
2023/08/11 10:27:51;;;;;;;1.77;1.63;;;;;;;28.03;nan;62706.72;5012902;28;20258;-63
2023/08/11 10:30:18;;;;;;;2.55;1.88;;;;;;;28.20;nan;62690.91;5013451;28;20554;-64
2023/08/11 10:32:43;;;;;;;3.72;1.70;;;;;;;27.90;nan;62678.09;5013273;28;20255;-63
2023/08/11 10:35:46;;;;;;;2.95;2.33;;;;;;;27.99;nan;62752.06;5013023;28;20263;-63
2023/08/11 10:38:11;;;;;;;2.00;1.70;;;;;;;28.43;nan;62790.88;5012913;28;20203;-65
2023/08/11 10:40:40;;;;;;;2.40;1.95;;;;;;;28.28;nan;62855.19;5012979;28;20233;-64
2023/08/11 10:43:06;;;;;;;3.95;1.80;;;;;;;28.21;nan;62758.31;5013465;28;20174;-65
2023/08/11 10:45:33;;;;;;;2.60;2.00;;;;;;;28.21;nan;62710.44;5012798;28;20183;-65
2023/08/11 10:47:59;;;;;;;2.65;1.90;;;;;;;28.03;nan;62561.59;5012468;28;20175;-65
2023/08/11 10:50:27;;;;;;;2.60;2.00;;;;;;;28.13;nan;62674.97;5010917;28;20175;-67
2023/08/11 10:53:22;;;;;;;2.33;1.80;;;;;;;28.19;nan;62710.78;5010993;28;20182;-66
2023/08/11 10:56:01;;;;;;;2.58;1.67;;;;;;;28.15;nan;62685.16;5005229;28;20253;-65
2023/08/11 10:58:29;;;;;;;2.40;1.83;;;;;;;28.14;nan;62707.69;5010616;28;20195;-64
2023/08/11 11:00:56;;;;;;;2.97;1.90;;;;;;;27.99;nan;62656.88;5010145;28;20183;-63
2023/08/11 11:03:22;;;;;;;2.13;1.80;;;;;;;28.16;nan;62834.09;5011578;28;20202;-63
2023/08/11 11:05:48;;;;;;;2.63;1.85;;;;;;;28.47;nan;62848.06;5012119;28;20188;-63
2023/08/11 11:08:13;;;;;;;1.70;1.60;;;;;;;28.62;nan;62783.16;5012848;28;20194;-66
2023/08/11 11:10:39;;;;;;;2.63;1.70;;;;;;;29.03;nan;62830.22;5012931;28;20646;-65
2023/08/11 11:13:04;;;;;;;2.17;1.77;;;;;;;28.90;nan;62818.50;5012599;28;20199;-65
2023/08/11 11:15:31;;;;;;;2.13;1.70;;;;;;;29.14;nan;62844.88;5012455;28;20601;-65
2023/08/11 11:17:59;;;;;;;2.88;2.10;;;;;;;29.35;nan;62984.91;5012500;28;20329;-63
2023/08/11 11:20:25;;;;;;;3.05;1.80;;;;;;;29.59;nan;62954.53;5011710;28;20237;-62
2023/08/11 11:22:50;;;;;;;2.58;1.77;;;;;;;29.74;nan;63044.97;5001606;28;20206;-63
2023/08/11 11:25:18;;;;;;;2.58;1.70;;;;;;;29.59;nan;62967.13;5002714;28;20348;-62
2023/08/11 11:27:44;;;;;;;2.10;1.90;;;;;;;29.73;nan;63015.41;5010687;28;20219;-65
2023/08/11 11:30:10;;;;;;;2.15;1.80;;;;;;;28.85;nan;62864.84;5012260;28;20190;-62
2023/08/11 11:32:37;;;;;;;2.30;1.80;;;;;;;28.93;nan;62814.06;5012389;28;20187;-63
2023/08/11 11:35:07;;;;;;;2.13;1.80;;;;;;;28.63;nan;62829.59;5011899;28;20178;-65
2023/08/11 11:37:33;;;;;;;1.95;1.70;;;;;;;28.60;nan;62981.38;5012317;28;20277;-63
2023/08/11 11:39:59;;;;;;;1.95;1.70;;;;;;;28.91;nan;62816.44;5011393;28;20203;-64
2023/08/11 11:42:46;;;;;;;2.00;1.75;;;;;;;29.31;nan;62938.16;5011852;28;20205;-63
2023/08/11 11:45:12;;;;;;;2.03;1.80;;;;;;;29.20;nan;62896.53;5011762;28;20171;-64
2023/08/11 11:47:40;;;;;;;2.13;1.73;;;;;;;28.71;nan;62873.03;5011956;28;20163;-65
2023/08/11 11:50:07;;;;;;;2.00;1.73;;;;;;;29.23;nan;62863.09;5011637;28;20160;-66